Time;durP1;ratioP1;P1;durP2;ratioP2;P2;SDS_P1;SDS_P2;PMS_P1;PMS_P2;Temp;Humidity;BMP_temperature;BMP_pressure;BME280_temperature;BME280_humidity;BME280_pressure;Samples;Min_cycle;Max_cycle;Signal;HPM_P1;HPM_P2
2024/01/17 00:02:24;;;;;;;3.95;2.55;;;;;;;;;;5027093;28;41364;-68
2024/01/17 00:04:54;;;;;;;4.88;3.00;;;;;;;;;;5025672;28;43714;-68
2024/01/17 00:07:23;;;;;;;6.45;3.65;;;;;;;;;;5024668;28;41153;-68
2024/01/17 00:09:51;;;;;;;6.72;2.90;;;;;;;;;;5013956;28;41820;-68
2024/01/17 00:12:20;;;;;;;4.15;3.08;;;;;;;;;;5011879;28;41942;-66
2024/01/17 00:14:48;;;;;;;6.45;4.60;;;;;;;;;;5014636;28;41843;-76
2024/01/17 00:17:16;;;;;;;5.68;3.10;;;;;;;;;;5020161;28;41595;-76
2024/01/17 00:19:45;;;;;;;6.70;3.30;;;;;;;;;;5008675;28;43147;-69
2024/01/17 00:22:15;;;;;;;3.63;2.65;;;;;;;;;;4998550;28;41125;-69
2024/01/17 00:24:43;;;;;;;4.57;3.08;;;;;;;;;;5002184;28;42591;-69
2024/01/17 00:27:13;;;;;;;4.40;2.50;;;;;;;;;;4991181;28;41158;-69
2024/01/17 00:29:42;;;;;;;4.30;2.72;;;;;;;;;;4989991;28;43217;-69
2024/01/17 00:32:10;;;;;;;5.43;3.30;;;;;;;;;;4995146;28;42333;-69
2024/01/17 00:34:38;;;;;;;5.32;2.88;;;;;;;;;;5002036;28;41347;-69
2024/01/17 00:37:09;;;;;;;4.70;3.00;;;;;;;;;;4992605;28;42653;-69
2024/01/17 00:39:37;;;;;;;5.55;3.55;;;;;;;;;;5005343;28;42057;-69
2024/01/17 00:42:06;;;;;;;6.15;3.13;;;;;;;;;;5004548;28;42199;-69
2024/01/17 00:44:38;;;;;;;4.90;3.30;;;;;;;;;;5007292;28;42567;-69
2024/01/17 00:47:07;;;;;;;6.65;4.63;;;;;;;;;;5005157;28;42243;-69
2024/01/17 00:49:35;;;;;;;6.18;2.65;;;;;;;;;;5006396;28;41635;-69
2024/01/17 00:52:03;;;;;;;5.63;3.60;;;;;;;;;;5006184;28;43580;-69
2024/01/17 00:54:31;;;;;;;5.32;2.90;;;;;;;;;;5002757;28;40901;-69
2024/01/17 00:56:59;;;;;;;6.60;3.45;;;;;;;;;;5005942;28;41762;-69
2024/01/17 00:59:27;;;;;;;6.72;3.42;;;;;;;;;;5006218;28;42890;-69
2024/01/17 01:01:55;;;;;;;4.47;2.72;;;;;;;;;;5004379;28;41205;-69
2024/01/17 01:04:24;;;;;;;8.02;3.60;;;;;;;;;;5005528;28;41277;-69
2024/01/17 01:06:52;;;;;;;4.57;2.65;;;;;;;;;;5005179;28;41617;-69
2024/01/17 01:09:20;;;;;;;4.68;3.42;;;;;;;;;;5006345;28;41882;-69
2024/01/17 01:11:48;;;;;;;4.75;2.88;;;;;;;;;;5004979;28;41693;-69
2024/01/17 01:14:16;;;;;;;4.53;2.65;;;;;;;;;;5005557;28;40986;-69
2024/01/17 01:16:44;;;;;;;4.70;2.80;;;;;;;;;;5005082;28;41864;-69
2024/01/17 01:19:13;;;;;;;5.55;3.72;;;;;;;;;;5006191;28;42025;-69
2024/01/17 01:21:42;;;;;;;5.05;3.50;;;;;;;;;;5020316;28;41297;-70
2024/01/17 01:24:10;;;;;;;5.47;3.42;;;;;;;;;;5025446;28;41320;-69
2024/01/17 01:26:38;;;;;;;4.78;3.28;;;;;;;;;;5025889;28;41590;-69
2024/01/17 01:29:09;;;;;;;4.47;2.85;;;;;;;;;;5025345;28;40742;-69
2024/01/17 01:31:37;;;;;;;4.75;3.30;;;;;;;;;;5025740;28;41917;-69
2024/01/17 01:34:05;;;;;;;6.47;3.33;;;;;;;;;;5024789;28;41075;-69
2024/01/17 01:36:33;;;;;;;4.97;3.83;;;;;;;;;;5025220;28;41156;-69
2024/01/17 01:39:02;;;;;;;4.30;3.13;;;;;;;;;;5024839;28;40386;-69
2024/01/17 01:41:30;;;;;;;5.65;2.95;;;;;;;;;;5025451;28;41236;-69
2024/01/17 01:43:59;;;;;;;4.82;3.10;;;;;;;;;;5009827;28;41877;-69
2024/01/17 01:46:27;;;;;;;5.05;3.35;;;;;;;;;;5024738;28;42249;-69
2024/01/17 01:48:55;;;;;;;6.57;3.17;;;;;;;;;;5023447;28;41270;-69
2024/01/17 01:51:23;;;;;;;3.92;2.95;;;;;;;;;;5023910;28;41177;-69
2024/01/17 01:53:57;;;;;;;5.10;2.72;;;;;;;;;;5020837;28;41205;-69
2024/01/17 01:56:27;;;;;;;6.38;3.75;;;;;;;;;;5020293;28;41322;-69
2024/01/17 01:58:55;;;;;;;5.95;3.35;;;;;;;;;;5018648;28;42809;-69
2024/01/17 02:01:24;;;;;;;4.22;3.00;;;;;;;;;;5022491;28;41328;-70
2024/01/17 02:03:52;;;;;;;5.28;3.38;;;;;;;;;;5023296;28;41497;-69
2024/01/17 02:06:19;;;;;;;4.35;3.45;;;;;;;;;;5024761;28;42855;-69
2024/01/17 02:08:48;;;;;;;5.50;3.08;;;;;;;;;;5005983;28;41589;-69
2024/01/17 02:11:17;;;;;;;5.22;3.50;;;;;;;;;;5017164;28;41634;-69
2024/01/17 02:13:46;;;;;;;3.80;2.83;;;;;;;;;;5010318;28;42705;-69
2024/01/17 02:16:14;;;;;;;6.90;2.70;;;;;;;;;;5024898;28;42133;-69
2024/01/17 02:18:42;;;;;;;6.05;3.47;;;;;;;;;;5023393;28;43095;-69
2024/01/17 02:21:11;;;;;;;4.95;3.17;;;;;;;;;;5024498;28;41227;-69
2024/01/17 02:23:39;;;;;;;4.88;3.33;;;;;;;;;;5023172;28;41542;-69
2024/01/17 02:26:09;;;;;;;5.25;3.45;;;;;;;;;;5020235;28;43196;-69
2024/01/17 02:28:37;;;;;;;3.80;2.72;;;;;;;;;;5020556;28;41409;-69
2024/01/17 02:31:05;;;;;;;5.07;3.08;;;;;;;;;;5026367;28;42703;-69
2024/01/17 02:33:33;;;;;;;5.47;3.42;;;;;;;;;;5025420;28;42640;-69
2024/01/17 02:36:01;;;;;;;6.25;3.70;;;;;;;;;;5027701;28;41155;-69
2024/01/17 02:38:29;;;;;;;5.28;3.03;;;;;;;;;;5026028;28;42604;-69
2024/01/17 02:40:57;;;;;;;6.63;4.05;;;;;;;;;;5025941;28;42236;-69
2024/01/17 02:43:27;;;;;;;5.03;2.95;;;;;;;;;;5025416;28;41687;-69
2024/01/17 02:45:56;;;;;;;5.90;3.45;;;;;;;;;;5027717;28;42051;-69
2024/01/17 02:48:24;;;;;;;3.90;2.95;;;;;;;;;;5021935;28;42373;-69
2024/01/17 02:50:52;;;;;;;5.45;3.67;;;;;;;;;;5026778;28;41125;-69
2024/01/17 02:53:19;;;;;;;6.28;3.50;;;;;;;;;;5025911;28;41799;-69
2024/01/17 02:55:47;;;;;;;4.85;3.75;;;;;;;;;;5027379;28;41385;-69
2024/01/17 02:58:16;;;;;;;4.35;3.08;;;;;;;;;;5026457;28;42730;-69
2024/01/17 03:00:45;;;;;;;5.97;4.07;;;;;;;;;;5026247;28;41576;-69
2024/01/17 03:03:13;;;;;;;4.55;2.80;;;;;;;;;;5027591;28;41790;-69
2024/01/17 03:05:42;;;;;;;5.00;3.72;;;;;;;;;;5024724;28;20255;-69
2024/01/17 03:08:11;;;;;;;5.68;3.15;;;;;;;;;;5026078;28;41282;-69
2024/01/17 03:10:39;;;;;;;6.15;3.40;;;;;;;;;;5026544;28;41737;-69
2024/01/17 03:13:08;;;;;;;4.95;3.55;;;;;;;;;;5026275;28;41947;-69
2024/01/17 03:15:36;;;;;;;7.53;3.83;;;;;;;;;;5027224;28;40988;-70
2024/01/17 03:18:08;;;;;;;4.53;3.05;;;;;;;;;;5026168;28;41173;-69
2024/01/17 03:20:36;;;;;;;5.28;3.58;;;;;;;;;;5026715;28;41269;-69
2024/01/17 03:23:04;;;;;;;5.68;4.13;;;;;;;;;;5026940;28;41526;-69
2024/01/17 03:25:32;;;;;;;4.43;3.17;;;;;;;;;;5023268;28;42220;-69
2024/01/17 03:28:00;;;;;;;5.68;3.58;;;;;;;;;;5024626;28;43281;-69
2024/01/17 03:30:28;;;;;;;4.03;3.03;;;;;;;;;;5026433;28;41784;-69
2024/01/17 03:32:56;;;;;;;4.88;3.17;;;;;;;;;;5026207;28;41468;-69
2024/01/17 03:35:25;;;;;;;4.78;2.88;;;;;;;;;;5024627;28;41918;-69
2024/01/17 03:37:53;;;;;;;5.80;4.05;;;;;;;;;;5026066;28;42689;-69
2024/01/17 03:40:21;;;;;;;8.25;4.43;;;;;;;;;;5026190;28;41659;-69
2024/01/17 03:42:49;;;;;;;4.93;3.35;;;;;;;;;;5026111;28;41413;-69
2024/01/17 03:45:17;;;;;;;6.30;4.00;;;;;;;;;;5025821;28;42457;-69
2024/01/17 03:47:45;;;;;;;6.03;3.90;;;;;;;;;;5027472;28;41333;-69
2024/01/17 03:50:14;;;;;;;4.40;3.60;;;;;;;;;;5025608;28;42252;-70
2024/01/17 03:52:43;;;;;;;6.28;3.70;;;;;;;;;;5026735;28;42196;-69
2024/01/17 03:55:11;;;;;;;5.70;3.15;;;;;;;;;;5025918;28;40920;-69
2024/01/17 03:57:39;;;;;;;5.60;3.75;;;;;;;;;;5025239;28;42510;-69
2024/01/17 04:00:08;;;;;;;7.38;4.72;;;;;;;;;;5026526;28;41860;-69
2024/01/17 04:02:37;;;;;;;5.80;3.72;;;;;;;;;;5025893;28;41386;-69
2024/01/17 04:05:05;;;;;;;5.50;3.42;;;;;;;;;;5023409;28;42136;-69
2024/01/17 04:07:33;;;;;;;5.15;4.03;;;;;;;;;;5025843;28;41532;-69
2024/01/17 04:10:03;;;;;;;5.68;3.47;;;;;;;;;;5025281;28;42799;-69
2024/01/17 04:12:31;;;;;;;6.78;3.80;;;;;;;;;;5026431;28;41882;-69
2024/01/17 04:14:59;;;;;;;4.05;3.22;;;;;;;;;;5026700;28;41161;-69
2024/01/17 04:17:27;;;;;;;6.30;4.07;;;;;;;;;;5025151;28;43791;-69
2024/01/17 04:19:55;;;;;;;5.55;3.85;;;;;;;;;;5025439;28;41986;-69
2024/01/17 04:22:33;;;;;;;;;;;;;;;;;;;;;
2024/01/17 04:25:02;;;;;;;4.85;3.13;;;;;;;;;;5026412;28;41433;-69
2024/01/17 04:27:32;;;;;;;7.07;4.10;;;;;;;;;;5024019;28;41986;-69
2024/01/17 04:30:00;;;;;;;5.43;4.00;;;;;;;;;;5025722;28;41957;-69
2024/01/17 04:32:29;;;;;;;4.88;3.45;;;;;;;;;;5024973;28;42487;-69
2024/01/17 04:34:57;;;;;;;8.43;4.97;;;;;;;;;;5024421;28;41865;-69
2024/01/17 04:37:27;;;;;;;4.65;3.47;;;;;;;;;;5025214;28;42617;-69
2024/01/17 04:39:56;;;;;;;4.57;3.67;;;;;;;;;;5023500;28;41848;-69
2024/01/17 04:42:26;;;;;;;5.35;3.33;;;;;;;;;;5025984;28;41182;-69
2024/01/17 04:44:54;;;;;;;5.43;3.90;;;;;;;;;;5024551;28;42056;-69
2024/01/17 04:47:21;;;;;;;6.28;3.70;;;;;;;;;;5026104;28;32698;-69
2024/01/17 04:49:50;;;;;;;5.28;3.00;;;;;;;;;;5020312;28;41867;-69
2024/01/17 04:52:18;;;;;;;6.65;3.33;;;;;;;;;;5011947;28;42199;-69
2024/01/17 04:54:46;;;;;;;5.47;3.20;;;;;;;;;;5023694;28;41381;-69
2024/01/17 04:57:14;;;;;;;7.18;3.42;;;;;;;;;;5024127;28;42638;-69
2024/01/17 04:59:44;;;;;;;5.72;3.58;;;;;;;;;;5024821;28;41911;-68
2024/01/17 05:02:11;;;;;;;5.60;3.50;;;;;;;;;;5026110;28;41494;-69
2024/01/17 05:04:39;;;;;;;5.57;3.50;;;;;;;;;;5024840;28;42149;-69
2024/01/17 05:07:08;;;;;;;4.55;3.13;;;;;;;;;;5024891;28;41299;-69
2024/01/17 05:09:37;;;;;;;4.38;3.55;;;;;;;;;;5025573;28;41563;-69
2024/01/17 05:12:06;;;;;;;5.40;3.40;;;;;;;;;;5016319;28;42115;-69
2024/01/17 05:14:37;;;;;;;4.13;2.85;;;;;;;;;;5023396;28;41320;-69
2024/01/17 05:17:06;;;;;;;3.20;2.90;;;;;;;;;;5021817;28;43258;-69
2024/01/17 05:19:35;;;;;;;6.75;3.63;;;;;;;;;;5025237;28;41706;-69
2024/01/17 05:22:04;;;;;;;4.35;2.90;;;;;;;;;;5024572;28;41792;-69
2024/01/17 05:24:32;;;;;;;5.00;3.63;;;;;;;;;;5025524;28;41590;-69
2024/01/17 05:27:00;;;;;;;4.00;3.35;;;;;;;;;;5025408;28;41991;-69
2024/01/17 05:29:30;;;;;;;4.57;3.05;;;;;;;;;;5024892;28;41232;-69
2024/01/17 05:31:58;;;;;;;6.07;3.47;;;;;;;;;;5025261;28;42684;-69
2024/01/17 05:34:27;;;;;;;5.22;3.55;;;;;;;;;;5024892;28;41295;-69
2024/01/17 05:36:55;;;;;;;5.25;3.60;;;;;;;;;;5025118;28;42517;-69
2024/01/17 05:39:23;;;;;;;5.07;2.95;;;;;;;;;;5024439;28;42198;-69
2024/01/17 05:41:51;;;;;;;4.20;2.55;;;;;;;;;;5014560;28;41333;-69
2024/01/17 05:44:19;;;;;;;4.25;3.40;;;;;;;;;;5021383;28;41654;-69
2024/01/17 05:46:47;;;;;;;5.47;3.80;;;;;;;;;;5024903;28;43101;-69
2024/01/17 05:49:15;;;;;;;5.72;3.35;;;;;;;;;;5021117;28;41202;-67
2024/01/17 05:51:44;;;;;;;6.30;3.40;;;;;;;;;;5017492;28;41682;-68
2024/01/17 05:54:12;;;;;;;5.85;3.58;;;;;;;;;;5024600;28;41747;-68
2024/01/17 05:56:40;;;;;;;4.57;3.30;;;;;;;;;;5023201;28;41147;-68
2024/01/17 05:59:08;;;;;;;4.00;3.28;;;;;;;;;;5024485;28;42632;-68
2024/01/17 06:01:36;;;;;;;4.65;3.40;;;;;;;;;;5025620;28;40616;-68
2024/01/17 06:04:04;;;;;;;5.05;3.45;;;;;;;;;;5023006;28;41212;-69
2024/01/17 06:06:32;;;;;;;7.55;4.43;;;;;;;;;;5022243;28;42990;-68
2024/01/17 06:09:01;;;;;;;3.88;2.90;;;;;;;;;;5023131;28;40809;-68
2024/01/17 06:11:29;;;;;;;3.53;3.05;;;;;;;;;;5023258;28;41741;-68
2024/01/17 06:13:59;;;;;;;4.53;3.42;;;;;;;;;;5024296;28;43166;-68
2024/01/17 06:16:27;;;;;;;3.22;2.38;;;;;;;;;;5008182;28;41463;-68
2024/01/17 06:18:59;;;;;;;3.30;2.72;;;;;;;;;;5019324;28;41841;-68
2024/01/17 06:21:27;;;;;;;4.95;3.33;;;;;;;;;;5014032;28;41631;-67
2024/01/17 06:23:57;;;;;;;4.95;3.75;;;;;;;;;;5010092;28;41695;-68
2024/01/17 06:26:27;;;;;;;4.22;2.65;;;;;;;;;;5013856;28;43112;-68
2024/01/17 06:28:55;;;;;;;3.78;3.33;;;;;;;;;;5020399;28;40996;-68
2024/01/17 06:31:24;;;;;;;5.70;2.83;;;;;;;;;;5012944;28;42246;-67
2024/01/17 06:33:52;;;;;;;3.83;2.83;;;;;;;;;;5021206;28;43072;-68
2024/01/17 06:36:21;;;;;;;5.30;2.90;;;;;;;;;;5020851;28;41217;-68
2024/01/17 06:38:49;;;;;;;4.78;2.85;;;;;;;;;;5013579;28;41881;-67
2024/01/17 06:41:17;;;;;;;5.55;3.28;;;;;;;;;;5020595;28;40835;-68
2024/01/17 06:43:46;;;;;;;4.82;2.60;;;;;;;;;;5023239;28;41613;-68
2024/01/17 06:46:14;;;;;;;3.70;2.75;;;;;;;;;;5021022;28;42026;-68
2024/01/17 06:48:42;;;;;;;3.92;2.90;;;;;;;;;;5023845;28;41087;-69
2024/01/17 06:51:15;;;;;;;3.72;2.72;;;;;;;;;;5020371;28;41789;-68
2024/01/17 06:53:43;;;;;;;5.00;2.90;;;;;;;;;;5023761;28;42715;-72
2024/01/17 06:56:11;;;;;;;4.35;3.08;;;;;;;;;;5016696;28;41109;-73
2024/01/17 06:58:39;;;;;;;5.80;3.63;;;;;;;;;;5014758;28;43072;-76
2024/01/17 07:01:09;;;;;;;6.88;2.90;;;;;;;;;;5018980;28;41394;-75
2024/01/17 07:03:37;;;;;;;5.93;3.42;;;;;;;;;;5021974;28;42678;-74
2024/01/17 07:06:05;;;;;;;6.32;3.25;;;;;;;;;;5024085;28;43345;-73
2024/01/17 07:08:34;;;;;;;4.20;3.10;;;;;;;;;;5012508;28;41258;-74
2024/01/17 07:11:02;;;;;;;5.13;3.13;;;;;;;;;;5011011;28;41516;-74
2024/01/17 07:13:30;;;;;;;6.53;3.67;;;;;;;;;;5022758;28;42129;-73
2024/01/17 07:15:58;;;;;;;3.92;2.45;;;;;;;;;;5026094;28;42232;-73
2024/01/17 07:18:27;;;;;;;4.93;2.92;;;;;;;;;;5026334;28;41216;-73
2024/01/17 07:20:55;;;;;;;6.15;3.65;;;;;;;;;;5026475;28;41381;-74
2024/01/17 07:23:23;;;;;;;12.70;4.13;;;;;;;;;;5021569;28;41737;-73
2024/01/17 07:25:51;;;;;;;6.45;3.38;;;;;;;;;;5025994;28;42689;-73
2024/01/17 07:28:19;;;;;;;5.15;3.20;;;;;;;;;;5026509;28;41924;-74
2024/01/17 07:30:47;;;;;;;11.05;3.90;;;;;;;;;;5026182;28;42765;-77
2024/01/17 07:33:15;;;;;;;7.28;3.67;;;;;;;;;;5026251;28;42111;-71
2024/01/17 07:35:45;;;;;;;6.40;3.22;;;;;;;;;;5026604;28;42372;-73
2024/01/17 07:38:14;;;;;;;5.65;2.85;;;;;;;;;;5022302;28;42904;-74
2024/01/17 07:40:43;;;;;;;6.15;3.70;;;;;;;;;;5012913;28;42720;-74
2024/01/17 07:43:10;;;;;;;5.70;3.53;;;;;;;;;;5017261;28;41265;-74
2024/01/17 07:45:38;;;;;;;4.75;2.75;;;;;;;;;;5025237;28;41917;-73
2024/01/17 07:48:06;;;;;;;5.63;3.10;;;;;;;;;;5023711;28;42350;-75
2024/01/17 07:50:35;;;;;;;5.78;2.88;;;;;;;;;;5024549;28;41595;-78
2024/01/17 07:53:07;;;;;;;4.30;2.92;;;;;;;;;;5023766;28;41981;-73
2024/01/17 07:55:35;;;;;;;6.53;3.38;;;;;;;;;;5026358;28;41343;-70
2024/01/17 07:58:03;;;;;;;7.05;3.05;;;;;;;;;;5021744;28;42109;-70
2024/01/17 08:00:31;;;;;;;5.85;3.10;;;;;;;;;;5026007;28;42018;-70
2024/01/17 08:02:59;;;;;;;8.95;4.28;;;;;;;;;;5024754;28;41426;-70
2024/01/17 08:05:27;;;;;;;8.50;3.38;;;;;;;;;;5017780;28;41996;-70
2024/01/17 08:07:55;;;;;;;6.13;3.33;;;;;;;;;;5006787;28;42263;-70
2024/01/17 08:10:24;;;;;;;8.10;3.60;;;;;;;;;;5024194;28;41061;-67
2024/01/17 08:12:52;;;;;;;9.25;3.50;;;;;;;;;;5016480;28;42145;-70
2024/01/17 08:15:20;;;;;;;8.68;3.42;;;;;;;;;;5017316;28;40874;-70
2024/01/17 08:17:50;;;;;;;7.03;3.78;;;;;;;;;;5023889;28;41321;-70
2024/01/17 08:20:18;;;;;;;5.25;2.90;;;;;;;;;;5018079;28;41468;-71
2024/01/17 08:22:46;;;;;;;10.88;3.95;;;;;;;;;;5021009;28;40843;-70
2024/01/17 08:25:14;;;;;;;4.68;3.00;;;;;;;;;;5018991;28;41623;-70
2024/01/17 08:27:43;;;;;;;10.25;3.65;;;;;;;;;;5023926;28;42238;-70
2024/01/17 08:30:11;;;;;;;7.93;4.63;;;;;;;;;;5024335;28;41801;-70
2024/01/17 08:32:40;;;;;;;9.43;3.70;;;;;;;;;;5024388;28;42496;-70
2024/01/17 08:35:08;;;;;;;9.30;3.80;;;;;;;;;;5025321;28;41302;-70
2024/01/17 08:37:36;;;;;;;6.70;3.13;;;;;;;;;;5026026;28;41845;-70
2024/01/17 08:40:05;;;;;;;5.88;3.75;;;;;;;;;;5027423;28;42090;-70
2024/01/17 08:42:33;;;;;;;4.38;3.10;;;;;;;;;;5026858;28;41242;-70
2024/01/17 08:45:03;;;;;;;10.05;3.25;;;;;;;;;;5025817;28;41734;-70
2024/01/17 08:47:31;;;;;;;4.70;3.15;;;;;;;;;;5022658;28;42203;-70
2024/01/17 08:50:00;;;;;;;8.38;2.83;;;;;;;;;;5016535;28;42667;-70
2024/01/17 08:52:28;;;;;;;5.47;3.40;;;;;;;;;;5024908;28;41930;-69
2024/01/17 08:54:57;;;;;;;6.75;3.55;;;;;;;;;;5026861;28;41821;-70
2024/01/17 08:57:25;;;;;;;8.80;3.50;;;;;;;;;;5015050;28;41317;-69
2024/01/17 08:59:54;;;;;;;6.60;3.47;;;;;;;;;;5022975;28;41555;-70
2024/01/17 09:02:24;;;;;;;6.90;3.67;;;;;;;;;;5025520;28;42409;-69
2024/01/17 09:04:53;;;;;;;5.32;3.30;;;;;;;;;;5026499;28;42366;-70
2024/01/17 09:07:21;;;;;;;5.53;3.60;;;;;;;;;;5025544;28;42052;-70
2024/01/17 09:09:52;;;;;;;7.70;4.50;;;;;;;;;;5026090;28;41156;-70
2024/01/17 09:12:20;;;;;;;7.88;3.20;;;;;;;;;;5024533;28;43110;-70
2024/01/17 09:14:48;;;;;;;7.00;3.45;;;;;;;;;;5025168;28;41417;-70
2024/01/17 09:17:16;;;;;;;6.88;3.90;;;;;;;;;;5024095;28;41715;-70
2024/01/17 09:19:46;;;;;;;5.78;3.33;;;;;;;;;;5025227;28;41952;-69
2024/01/17 09:22:14;;;;;;;5.90;3.10;;;;;;;;;;5006829;28;41182;-70
2024/01/17 09:24:42;;;;;;;7.25;3.58;;;;;;;;;;5005833;28;42738;-70
2024/01/17 09:27:10;;;;;;;5.72;3.20;;;;;;;;;;5005630;28;41889;-70
2024/01/17 09:29:38;;;;;;;5.25;3.47;;;;;;;;;;5004365;28;41671;-69
2024/01/17 09:32:06;;;;;;;9.73;3.75;;;;;;;;;;5006311;28;42842;-70
2024/01/17 09:34:36;;;;;;;4.97;3.33;;;;;;;;;;5004647;28;42448;-70
2024/01/17 09:37:06;;;;;;;6.03;3.75;;;;;;;;;;5004577;28;42118;-70
2024/01/17 09:39:34;;;;;;;8.07;4.05;;;;;;;;;;4999290;28;42492;-70
2024/01/17 09:42:01;;;;;;;6.22;3.40;;;;;;;;;;5003721;28;41051;-69
2024/01/17 09:44:29;;;;;;;6.97;3.75;;;;;;;;;;4990948;28;41835;-70
2024/01/17 09:46:58;;;;;;;7.32;3.83;;;;;;;;;;5002228;28;42065;-70
2024/01/17 09:49:27;;;;;;;5.93;3.53;;;;;;;;;;5004889;28;41336;-70
2024/01/17 09:51:55;;;;;;;5.07;3.40;;;;;;;;;;5006191;28;41681;-69
2024/01/17 09:54:25;;;;;;;7.00;4.03;;;;;;;;;;5003442;28;41208;-70
2024/01/17 09:56:55;;;;;;;5.20;3.35;;;;;;;;;;5001541;28;41802;-70
2024/01/17 09:59:27;;;;;;;7.40;3.88;;;;;;;;;;5005043;28;41581;-70
2024/01/17 10:01:56;;;;;;;6.95;4.07;;;;;;;;;;4991872;28;42333;-70
2024/01/17 10:04:25;;;;;;;6.47;4.38;;;;;;;;;;5005007;28;42300;-70
2024/01/17 10:06:55;;;;;;;5.47;3.95;;;;;;;;;;4990063;28;43154;-69
2024/01/17 10:09:25;;;;;;;6.28;3.13;;;;;;;;;;4993018;28;41841;-69
2024/01/17 10:11:53;;;;;;;6.45;4.05;;;;;;;;;;4989065;28;41107;-70
2024/01/17 10:14:23;;;;;;;7.28;4.20;;;;;;;;;;5004777;28;43109;-69
2024/01/17 10:16:51;;;;;;;5.90;4.47;;;;;;;;;;5002766;28;41114;-70
2024/01/17 10:19:19;;;;;;;5.13;3.90;;;;;;;;;;5005214;28;43019;-70
2024/01/17 10:21:47;;;;;;;5.32;3.58;;;;;;;;;;5020342;28;41913;-69
2024/01/17 10:24:15;;;;;;;10.52;4.10;;;;;;;;;;5024663;28;41054;-70
2024/01/17 10:26:45;;;;;;;6.75;4.38;;;;;;;;;;5013600;28;42690;-70
2024/01/17 10:29:12;;;;;;;7.03;4.70;;;;;;;;;;5022572;28;41282;-69
2024/01/17 10:31:40;;;;;;;4.70;3.45;;;;;;;;;;5024119;28;42236;-69
2024/01/17 10:34:08;;;;;;;5.05;3.65;;;;;;;;;;5020046;28;43126;-69
2024/01/17 10:36:38;;;;;;;6.03;3.40;;;;;;;;;;5024367;28;41238;-69
2024/01/17 10:39:06;;;;;;;5.72;4.40;;;;;;;;;;5024174;28;43138;-69
2024/01/17 10:41:36;;;;;;;7.70;5.20;;;;;;;;;;5024849;28;41056;-69
2024/01/17 10:44:05;;;;;;;8.02;5.43;;;;;;;;;;5018256;28;41421;-70
2024/01/17 10:46:33;;;;;;;9.00;5.70;;;;;;;;;;5023768;28;42229;-69
2024/01/17 10:49:01;;;;;;;5.68;4.18;;;;;;;;;;5023461;28;40963;-70
2024/01/17 10:51:30;;;;;;;6.85;4.13;;;;;;;;;;5014895;28;41288;-70
2024/01/17 10:53:58;;;;;;;5.93;4.65;;;;;;;;;;5027717;28;41606;-70
2024/01/17 10:56:27;;;;;;;5.88;4.30;;;;;;;;;;5026966;28;40850;-69
2024/01/17 10:58:55;;;;;;;8.27;5.57;;;;;;;;;;5026801;28;42371;-69
2024/01/17 11:01:26;;;;;;;6.00;3.78;;;;;;;;;;5025229;28;41241;-70
2024/01/17 11:03:54;;;;;;;8.65;5.90;;;;;;;;;;5028839;28;42318;-69
2024/01/17 11:06:22;;;;;;;8.88;5.82;;;;;;;;;;5026282;28;43075;-69
2024/01/17 11:08:50;;;;;;;14.05;8.18;;;;;;;;;;5026586;28;42332;-69
2024/01/17 11:11:18;;;;;;;5.82;3.83;;;;;;;;;;5026979;28;42011;-70
2024/01/17 11:13:46;;;;;;;6.40;4.55;;;;;;;;;;5027549;28;42366;-70
2024/01/17 11:16:15;;;;;;;6.30;4.95;;;;;;;;;;5025003;28;40995;-69
2024/01/17 11:18:46;;;;;;;6.63;4.63;;;;;;;;;;5023090;28;41494;-70
2024/01/17 11:21:14;;;;;;;7.50;4.80;;;;;;;;;;5027210;28;42390;-70
2024/01/17 11:23:42;;;;;;;9.18;5.70;;;;;;;;;;5026685;28;41883;-70
2024/01/17 11:26:11;;;;;;;8.73;4.38;;;;;;;;;;5019187;28;42504;-70
2024/01/17 11:28:41;;;;;;;6.50;4.95;;;;;;;;;;5023102;28;41054;-69
2024/01/17 11:31:14;;;;;;;6.85;4.47;;;;;;;;;;5026607;28;41855;-70
2024/01/17 11:33:43;;;;;;;6.88;4.47;;;;;;;;;;5023922;28;42097;-69
2024/01/17 11:36:22;;;;;;;5.47;4.03;;;;;;;;;;5025716;28;41552;-69
2024/01/17 11:38:50;;;;;;;11.25;4.55;;;;;;;;;;5027045;28;41201;-72
2024/01/17 11:41:18;;;;;;;6.38;4.57;;;;;;;;;;5012219;28;42146;-74
2024/01/17 11:43:46;;;;;;;8.70;5.25;;;;;;;;;;5018214;28;41013;-75
2024/01/17 11:46:14;;;;;;;6.70;4.30;;;;;;;;;;5015087;28;43189;-73
2024/01/17 11:48:42;;;;;;;6.38;4.00;;;;;;;;;;5011044;28;42295;-73
2024/01/17 11:51:14;;;;;;;6.38;3.90;;;;;;;;;;5022110;28;41365;-74
2024/01/17 11:53:47;;;;;;;6.28;4.00;;;;;;;;;;5029843;28;42228;-70
2024/01/17 11:56:16;;;;;;;18.70;4.45;;;;;;;;;;5016542;28;41275;-74
2024/01/17 11:58:44;;;;;;;6.63;4.15;;;;;;;;;;5025889;28;41737;-74
2024/01/17 12:01:13;;;;;;;6.30;4.50;;;;;;;;;;5018783;28;42077;-75
2024/01/17 12:03:42;;;;;;;6.47;4.47;;;;;;;;;;5027935;28;42399;-82
2024/01/17 12:06:10;;;;;;;7.53;5.20;;;;;;;;;;5026311;28;43200;-79
2024/01/17 12:08:38;;;;;;;7.47;5.20;;;;;;;;;;5026932;28;41135;-78
2024/01/17 12:11:08;;;;;;;7.07;4.90;;;;;;;;;;5026893;28;41701;-79
2024/01/17 12:13:37;;;;;;;9.65;5.05;;;;;;;;;;5026749;28;43609;-73
2024/01/17 12:16:05;;;;;;;11.80;4.60;;;;;;;;;;5026322;28;41957;-78
2024/01/17 12:18:34;;;;;;;6.82;4.40;;;;;;;;;;5022034;28;42331;-76
2024/01/17 12:21:02;;;;;;;4.93;3.90;;;;;;;;;;5018027;28;41924;-77
2024/01/17 12:23:31;;;;;;;6.32;4.22;;;;;;;;;;5022746;28;41082;-79
2024/01/17 12:25:59;;;;;;;7.22;4.22;;;;;;;;;;5009818;28;41927;-77
2024/01/17 12:28:29;;;;;;;6.18;3.63;;;;;;;;;;5012347;28;41400;-82
2024/01/17 12:30:57;;;;;;;6.03;4.25;;;;;;;;;;5014244;28;41325;-80
2024/01/17 12:33:25;;;;;;;6.20;3.85;;;;;;;;;;5026543;28;40475;-76
2024/01/17 12:35:54;;;;;;;6.80;3.92;;;;;;;;;;5012715;28;42305;-70
2024/01/17 12:38:22;;;;;;;7.47;4.78;;;;;;;;;;5017381;28;41826;-70
2024/01/17 12:40:50;;;;;;;6.70;4.00;;;;;;;;;;5025716;28;42307;-69
2024/01/17 12:43:18;;;;;;;10.65;5.13;;;;;;;;;;5026298;28;42279;-71
2024/01/17 12:45:47;;;;;;;6.22;4.45;;;;;;;;;;5026639;28;41349;-71
2024/01/17 12:48:16;;;;;;;8.35;4.28;;;;;;;;;;5027364;28;42393;-71
2024/01/17 12:50:45;;;;;;;6.72;3.35;;;;;;;;;;5026824;28;41470;-72
2024/01/17 12:53:13;;;;;;;8.25;4.45;;;;;;;;;;5027301;28;43059;-73
2024/01/17 12:55:44;;;;;;;6.18;4.03;;;;;;;;;;5026673;28;41236;-73
2024/01/17 12:58:13;;;;;;;7.65;5.22;;;;;;;;;;5024278;28;41280;-73
2024/01/17 13:00:41;;;;;;;7.10;4.78;;;;;;;;;;5025436;28;43224;-71
2024/01/17 13:03:11;;;;;;;7.45;4.10;;;;;;;;;;5027377;28;42072;-71
2024/01/17 13:05:39;;;;;;;7.18;4.13;;;;;;;;;;5022705;28;42351;-69
2024/01/17 13:08:11;;;;;;;6.47;4.40;;;;;;;;;;5026618;28;42054;-74
2024/01/17 13:10:39;;;;;;;5.18;3.58;;;;;;;;;;5025903;28;41337;-74
2024/01/17 13:13:08;;;;;;;8.73;4.30;;;;;;;;;;5010355;28;42815;-74
2024/01/17 13:15:37;;;;;;;7.88;4.57;;;;;;;;;;5026749;28;41769;-74
2024/01/17 13:18:05;;;;;;;5.43;3.72;;;;;;;;;;5023510;28;42468;-74
2024/01/17 13:20:35;;;;;;;6.40;4.22;;;;;;;;;;5025053;28;41676;-74
2024/01/17 13:23:04;;;;;;;5.68;3.85;;;;;;;;;;5012432;28;41208;-74
2024/01/17 13:25:32;;;;;;;5.00;3.42;;;;;;;;;;5012408;28;41426;-74
2024/01/17 13:28:01;;;;;;;6.15;4.28;;;;;;;;;;5025785;28;42643;-74
2024/01/17 13:30:29;;;;;;;6.93;3.88;;;;;;;;;;5026821;28;40928;-74
2024/01/17 13:32:57;;;;;;;6.70;4.55;;;;;;;;;;5014715;28;41717;-75
2024/01/17 13:35:25;;;;;;;6.03;3.80;;;;;;;;;;5022826;28;41203;-74
2024/01/17 13:37:54;;;;;;;5.20;3.88;;;;;;;;;;5012628;28;41854;-74
2024/01/17 13:40:23;;;;;;;4.75;3.47;;;;;;;;;;5025396;28;41682;-74
2024/01/17 13:42:51;;;;;;;5.03;3.65;;;;;;;;;;5025738;28;41955;-74
2024/01/17 13:45:19;;;;;;;6.10;4.28;;;;;;;;;;5026445;28;41903;-74
2024/01/17 13:47:48;;;;;;;5.93;3.13;;;;;;;;;;5010871;28;43694;-74
2024/01/17 13:50:22;;;;;;;5.28;3.80;;;;;;;;;;5026224;28;41180;-74
2024/01/17 13:52:52;;;;;;;5.55;3.90;;;;;;;;;;5025836;28;41457;-74
2024/01/17 13:55:23;;;;;;;6.47;3.97;;;;;;;;;;5025201;28;41409;-74
2024/01/17 13:57:51;;;;;;;6.28;3.83;;;;;;;;;;5025100;28;42725;-75
2024/01/17 14:00:22;;;;;;;7.05;4.43;;;;;;;;;;5026395;28;43232;-75
2024/01/17 14:02:50;;;;;;;5.53;3.63;;;;;;;;;;5016441;28;41344;-69
2024/01/17 14:05:18;;;;;;;7.18;4.15;;;;;;;;;;5019974;28;42825;-71
2024/01/17 14:07:46;;;;;;;6.40;4.25;;;;;;;;;;5015022;28;42717;-71
2024/01/17 14:10:14;;;;;;;8.45;4.43;;;;;;;;;;5012524;28;41654;-71
2024/01/17 14:12:44;;;;;;;6.25;4.03;;;;;;;;;;5024052;28;42699;-74
2024/01/17 14:15:12;;;;;;;8.52;4.07;;;;;;;;;;5022120;28;42670;-77
2024/01/17 14:17:40;;;;;;;8.20;4.82;;;;;;;;;;5021450;28;41762;-83
2024/01/17 14:20:16;;;;;;;6.95;4.53;;;;;;;;;;5017706;28;43102;-77
2024/01/17 14:22:44;;;;;;;7.60;4.93;;;;;;;;;;5021715;28;41358;-73
2024/01/17 14:25:14;;;;;;;7.43;5.10;;;;;;;;;;5027001;28;41719;-74
2024/01/17 14:27:44;;;;;;;5.82;3.78;;;;;;;;;;5021063;28;42039;-72
2024/01/17 14:30:12;;;;;;;7.45;4.65;;;;;;;;;;5024737;28;42128;-72
2024/01/17 14:32:41;;;;;;;6.57;4.40;;;;;;;;;;5025794;28;41407;-72
2024/01/17 14:35:09;;;;;;;6.22;3.83;;;;;;;;;;5028052;28;42611;-73
2024/01/17 14:37:39;;;;;;;5.90;4.75;;;;;;;;;;5027475;28;41319;-70
2024/01/17 14:40:08;;;;;;;5.50;4.07;;;;;;;;;;5028574;28;42805;-71
2024/01/17 14:42:38;;;;;;;7.35;4.13;;;;;;;;;;5028741;28;41888;-70
2024/01/17 14:45:09;;;;;;;6.55;4.13;;;;;;;;;;5027957;28;41332;-70
2024/01/17 14:47:38;;;;;;;6.25;4.90;;;;;;;;;;5027907;28;41995;-70
2024/01/17 14:50:07;;;;;;;6.50;4.30;;;;;;;;;;5027894;28;40723;-70
2024/01/17 14:52:35;;;;;;;6.72;3.90;;;;;;;;;;5027505;28;41186;-69